sensor_id;sensor_type;location;lat;lon;timestamp;P1;durP1;ratioP1;P2;durP2;ratioP2
73938;SDS011;62291;47.554;8.504;2023-08-24T00:00:20;6.78;;;5.53;;
73938;SDS011;62291;47.554;8.504;2023-08-24T00:02:46;6.70;;;5.45;;
73938;SDS011;62291;47.554;8.504;2023-08-24T00:05:12;14.18;;;6.50;;
73938;SDS011;62291;47.554;8.504;2023-08-24T00:07:38;6.95;;;6.25;;
73938;SDS011;62291;47.554;8.504;2023-08-24T00:10:04;8.90;;;6.50;;
73938;SDS011;62291;47.554;8.504;2023-08-24T00:12:30;7.60;;;5.40;;
73938;SDS011;62291;47.554;8.504;2023-08-24T00:14:58;8.55;;;5.70;;
73938;SDS011;62291;47.554;8.504;2023-08-24T00:17:23;7.07;;;5.10;;
73938;SDS011;62291;47.554;8.504;2023-08-24T00:19:49;7.72;;;6.18;;
73938;SDS011;62291;47.554;8.504;2023-08-24T00:22:15;7.57;;;5.72;;
73938;SDS011;62291;47.554;8.504;2023-08-24T00:24:41;6.05;;;5.40;;
73938;SDS011;62291;47.554;8.504;2023-08-24T00:27:06;8.48;;;5.63;;
73938;SDS011;62291;47.554;8.504;2023-08-24T00:29:32;6.45;;;5.85;;
73938;SDS011;62291;47.554;8.504;2023-08-24T00:31:58;7.13;;;5.57;;
73938;SDS011;62291;47.554;8.504;2023-08-24T00:34:23;6.22;;;5.38;;
73938;SDS011;62291;47.554;8.504;2023-08-24T00:36:49;8.65;;;4.90;;
73938;SDS011;62291;47.554;8.504;2023-08-24T00:39:15;9.40;;;5.57;;
73938;SDS011;62291;47.554;8.504;2023-08-24T00:41:41;7.75;;;6.00;;
73938;SDS011;62291;47.554;8.504;2023-08-24T00:44:07;8.32;;;5.78;;
73938;SDS011;62291;47.554;8.504;2023-08-24T00:46:33;5.70;;;5.18;;
73938;SDS011;62291;47.554;8.504;2023-08-24T00:49:00;7.82;;;5.03;;
73938;SDS011;62291;47.554;8.504;2023-08-24T00:51:26;5.85;;;5.22;;
73938;SDS011;62291;47.554;8.504;2023-08-24T00:53:52;6.15;;;5.40;;
73938;SDS011;62291;47.554;8.504;2023-08-24T00:56:18;6.82;;;5.95;;
73938;SDS011;62291;47.554;8.504;2023-08-24T00:58:49;9.23;;;5.45;;
73938;SDS011;62291;47.554;8.504;2023-08-24T01:01:16;8.25;;;5.18;;
73938;SDS011;62291;47.554;8.504;2023-08-24T01:03:43;8.05;;;5.80;;
73938;SDS011;62291;47.554;8.504;2023-08-24T01:06:08;7.10;;;5.45;;
73938;SDS011;62291;47.554;8.504;2023-08-24T01:08:34;8.02;;;5.63;;
73938;SDS011;62291;47.554;8.504;2023-08-24T01:13:41;6.05;;;5.45;;
73938;SDS011;62291;47.554;8.504;2023-08-24T01:16:21;8.88;;;5.70;;
73938;SDS011;62291;47.554;8.504;2023-08-24T01:18:57;8.55;;;6.00;;
73938;SDS011;62291;47.554;8.504;2023-08-24T01:21:25;8.95;;;6.10;;
73938;SDS011;62291;47.554;8.504;2023-08-24T01:26:48;8.00;;;6.05;;
73938;SDS011;62291;47.554;8.504;2023-08-24T01:29:14;10.00;;;6.18;;
73938;SDS011;62291;47.554;8.504;2023-08-24T01:31:40;8.70;;;7.40;;
73938;SDS011;62291;47.554;8.504;2023-08-24T01:34:06;7.63;;;6.85;;
73938;SDS011;62291;47.554;8.504;2023-08-24T01:36:32;8.57;;;6.05;;
73938;SDS011;62291;47.554;8.504;2023-08-24T01:39:13;8.82;;;6.63;;
73938;SDS011;62291;47.554;8.504;2023-08-24T01:41:46;10.32;;;7.40;;
73938;SDS011;62291;47.554;8.504;2023-08-24T01:44:17;9.77;;;7.47;;
73938;SDS011;62291;47.554;8.504;2023-08-24T01:46:45;8.00;;;6.90;;
73938;SDS011;62291;47.554;8.504;2023-08-24T01:49:13;9.38;;;6.75;;
73938;SDS011;62291;47.554;8.504;2023-08-24T01:51:44;10.43;;;5.95;;
73938;SDS011;62291;47.554;8.504;2023-08-24T01:54:11;8.15;;;7.15;;
73938;SDS011;62291;47.554;8.504;2023-08-24T01:56:37;9.02;;;7.10;;
73938;SDS011;62291;47.554;8.504;2023-08-24T01:59:03;7.53;;;6.82;;
73938;SDS011;62291;47.554;8.504;2023-08-24T02:01:28;8.82;;;6.47;;
73938;SDS011;62291;47.554;8.504;2023-08-24T02:03:54;8.82;;;6.72;;
73938;SDS011;62291;47.554;8.504;2023-08-24T02:06:20;6.90;;;6.20;;
73938;SDS011;62291;47.554;8.504;2023-08-24T02:08:46;8.88;;;6.70;;
73938;SDS011;62291;47.554;8.504;2023-08-24T02:11:12;7.38;;;6.60;;
73938;SDS011;62291;47.554;8.504;2023-08-24T02:13:37;10.90;;;6.80;;
73938;SDS011;62291;47.554;8.504;2023-08-24T02:16:07;9.80;;;6.65;;
73938;SDS011;62291;47.554;8.504;2023-08-24T02:18:37;7.32;;;6.30;;
73938;SDS011;62291;47.554;8.504;2023-08-24T02:21:07;7.30;;;6.43;;
73938;SDS011;62291;47.554;8.504;2023-08-24T02:23:33;8.43;;;6.93;;
73938;SDS011;62291;47.554;8.504;2023-08-24T02:25:59;12.13;;;6.65;;
73938;SDS011;62291;47.554;8.504;2023-08-24T02:28:25;7.15;;;6.30;;
73938;SDS011;62291;47.554;8.504;2023-08-24T02:30:50;8.85;;;7.28;;
73938;SDS011;62291;47.554;8.504;2023-08-24T02:33:16;7.93;;;6.97;;
73938;SDS011;62291;47.554;8.504;2023-08-24T02:35:42;11.00;;;7.55;;
73938;SDS011;62291;47.554;8.504;2023-08-24T02:38:09;7.70;;;6.80;;
73938;SDS011;62291;47.554;8.504;2023-08-24T02:40:35;10.73;;;7.13;;
73938;SDS011;62291;47.554;8.504;2023-08-24T02:43:01;9.25;;;6.15;;
73938;SDS011;62291;47.554;8.504;2023-08-24T02:45:27;9.38;;;7.10;;
73938;SDS011;62291;47.554;8.504;2023-08-24T02:47:53;7.72;;;6.93;;
73938;SDS011;62291;47.554;8.504;2023-08-24T02:50:18;9.93;;;7.63;;
73938;SDS011;62291;47.554;8.504;2023-08-24T02:52:44;7.70;;;6.97;;
73938;SDS011;62291;47.554;8.504;2023-08-24T02:55:10;10.95;;;9.27;;
73938;SDS011;62291;47.554;8.504;2023-08-24T02:57:37;8.30;;;7.50;;
73938;SDS011;62291;47.554;8.504;2023-08-24T03:00:03;10.05;;;8.27;;
73938;SDS011;62291;47.554;8.504;2023-08-24T03:02:31;10.98;;;8.00;;
73938;SDS011;62291;47.554;8.504;2023-08-24T03:04:57;8.98;;;8.07;;
73938;SDS011;62291;47.554;8.504;2023-08-24T03:07:23;8.25;;;7.45;;
73938;SDS011;62291;47.554;8.504;2023-08-24T03:09:48;11.63;;;7.78;;
73938;SDS011;62291;47.554;8.504;2023-08-24T03:12:14;11.40;;;7.90;;
73938;SDS011;62291;47.554;8.504;2023-08-24T03:14:40;10.98;;;7.75;;
73938;SDS011;62291;47.554;8.504;2023-08-24T03:17:05;14.18;;;8.68;;
73938;SDS011;62291;47.554;8.504;2023-08-24T03:19:32;9.82;;;8.23;;
73938;SDS011;62291;47.554;8.504;2023-08-24T03:21:58;10.18;;;9.18;;
73938;SDS011;62291;47.554;8.504;2023-08-24T03:24:23;11.60;;;9.77;;
73938;SDS011;62291;47.554;8.504;2023-08-24T03:26:49;10.88;;;9.77;;
73938;SDS011;62291;47.554;8.504;2023-08-24T03:29:15;13.63;;;8.60;;
73938;SDS011;62291;47.554;8.504;2023-08-24T03:31:40;11.82;;;8.23;;
73938;SDS011;62291;47.554;8.504;2023-08-24T03:34:06;9.43;;;8.40;;
73938;SDS011;62291;47.554;8.504;2023-08-24T03:36:32;9.48;;;8.57;;
73938;SDS011;62291;47.554;8.504;2023-08-24T03:38:57;9.90;;;8.88;;
73938;SDS011;62291;47.554;8.504;2023-08-24T03:41:23;9.88;;;8.30;;
73938;SDS011;62291;47.554;8.504;2023-08-24T03:43:49;8.10;;;7.05;;
73938;SDS011;62291;47.554;8.504;2023-08-24T03:46:15;8.82;;;7.50;;
73938;SDS011;62291;47.554;8.504;2023-08-24T03:48:40;11.73;;;8.20;;
73938;SDS011;62291;47.554;8.504;2023-08-24T03:51:06;10.23;;;9.13;;
73938;SDS011;62291;47.554;8.504;2023-08-24T03:53:32;9.10;;;8.20;;
73938;SDS011;62291;47.554;8.504;2023-08-24T03:55:58;10.65;;;8.50;;
73938;SDS011;62291;47.554;8.504;2023-08-24T03:58:23;9.55;;;8.52;;
73938;SDS011;62291;47.554;8.504;2023-08-24T04:00:49;9.52;;;8.43;;
73938;SDS011;62291;47.554;8.504;2023-08-24T04:03:15;11.00;;;8.27;;
73938;SDS011;62291;47.554;8.504;2023-08-24T04:05:41;10.00;;;8.57;;
73938;SDS011;62291;47.554;8.504;2023-08-24T04:08:07;10.32;;;7.93;;
73938;SDS011;62291;47.554;8.504;2023-08-24T04:10:33;9.32;;;8.38;;
73938;SDS011;62291;47.554;8.504;2023-08-24T04:12:59;8.80;;;7.95;;
73938;SDS011;62291;47.554;8.504;2023-08-24T04:15:24;9.57;;;8.27;;
73938;SDS011;62291;47.554;8.504;2023-08-24T04:17:50;12.07;;;7.55;;
73938;SDS011;62291;47.554;8.504;2023-08-24T04:20:16;9.02;;;7.45;;
73938;SDS011;62291;47.554;8.504;2023-08-24T04:22:42;11.27;;;7.82;;
73938;SDS011;62291;47.554;8.504;2023-08-24T04:25:07;8.77;;;7.70;;
73938;SDS011;62291;47.554;8.504;2023-08-24T04:27:34;8.82;;;7.88;;
73938;SDS011;62291;47.554;8.504;2023-08-24T04:30:00;9.05;;;7.57;;
73938;SDS011;62291;47.554;8.504;2023-08-24T04:32:26;9.23;;;6.97;;
73938;SDS011;62291;47.554;8.504;2023-08-24T04:34:52;9.30;;;7.07;;
73938;SDS011;62291;47.554;8.504;2023-08-24T04:37:18;11.48;;;7.22;;
73938;SDS011;62291;47.554;8.504;2023-08-24T04:39:44;8.05;;;7.22;;
73938;SDS011;62291;47.554;8.504;2023-08-24T04:42:09;8.35;;;7.53;;
73938;SDS011;62291;47.554;8.504;2023-08-24T04:44:35;10.93;;;8.30;;
73938;SDS011;62291;47.554;8.504;2023-08-24T04:47:01;12.90;;;8.75;;
73938;SDS011;62291;47.554;8.504;2023-08-24T04:49:26;13.18;;;8.80;;
73938;SDS011;62291;47.554;8.504;2023-08-24T04:51:53;15.05;;;9.43;;
73938;SDS011;62291;47.554;8.504;2023-08-24T04:54:19;11.07;;;8.98;;
73938;SDS011;62291;47.554;8.504;2023-08-24T04:56:45;10.35;;;9.00;;
73938;SDS011;62291;47.554;8.504;2023-08-24T04:59:10;11.45;;;9.18;;
73938;SDS011;62291;47.554;8.504;2023-08-24T05:01:36;13.10;;;8.45;;
73938;SDS011;62291;47.554;8.504;2023-08-24T05:04:02;10.18;;;8.70;;
73938;SDS011;62291;47.554;8.504;2023-08-24T05:06:27;9.25;;;8.18;;
73938;SDS011;62291;47.554;8.504;2023-08-24T05:08:54;12.30;;;8.10;;
73938;SDS011;62291;47.554;8.504;2023-08-24T05:11:21;11.07;;;8.07;;
73938;SDS011;62291;47.554;8.504;2023-08-24T05:13:49;10.15;;;7.78;;
73938;SDS011;62291;47.554;8.504;2023-08-24T05:16:15;10.38;;;8.75;;
73938;SDS011;62291;47.554;8.504;2023-08-24T05:18:41;12.43;;;8.05;;
73938;SDS011;62291;47.554;8.504;2023-08-24T05:21:06;9.23;;;7.32;;
73938;SDS011;62291;47.554;8.504;2023-08-24T05:23:33;11.68;;;7.45;;
73938;SDS011;62291;47.554;8.504;2023-08-24T05:26:00;8.65;;;7.75;;
73938;SDS011;62291;47.554;8.504;2023-08-24T05:28:27;9.50;;;7.40;;
73938;SDS011;62291;47.554;8.504;2023-08-24T05:30:54;14.82;;;6.93;;
73938;SDS011;62291;47.554;8.504;2023-08-24T05:33:20;10.77;;;7.43;;
73938;SDS011;62291;47.554;8.504;2023-08-24T05:35:46;9.45;;;8.55;;
73938;SDS011;62291;47.554;8.504;2023-08-24T05:38:13;12.82;;;9.55;;
73938;SDS011;62291;47.554;8.504;2023-08-24T05:40:39;11.68;;;9.20;;
73938;SDS011;62291;47.554;8.504;2023-08-24T05:43:07;12.50;;;7.18;;
73938;SDS011;62291;47.554;8.504;2023-08-24T05:45:33;11.77;;;6.88;;
73938;SDS011;62291;47.554;8.504;2023-08-24T05:47:59;13.27;;;7.53;;
73938;SDS011;62291;47.554;8.504;2023-08-24T05:50:25;12.20;;;7.57;;
73938;SDS011;62291;47.554;8.504;2023-08-24T05:52:50;14.90;;;8.07;;
73938;SDS011;62291;47.554;8.504;2023-08-24T05:55:16;13.20;;;8.05;;
73938;SDS011;62291;47.554;8.504;2023-08-24T05:57:42;11.02;;;7.60;;
73938;SDS011;62291;47.554;8.504;2023-08-24T06:00:08;10.00;;;7.35;;
73938;SDS011;62291;47.554;8.504;2023-08-24T06:02:38;13.40;;;7.35;;
73938;SDS011;62291;47.554;8.504;2023-08-24T06:05:05;11.18;;;7.38;;
73938;SDS011;62291;47.554;8.504;2023-08-24T06:07:31;10.50;;;6.72;;
73938;SDS011;62291;47.554;8.504;2023-08-24T06:09:57;10.05;;;6.82;;
73938;SDS011;62291;47.554;8.504;2023-08-24T06:12:23;11.82;;;7.20;;
73938;SDS011;62291;47.554;8.504;2023-08-24T06:14:49;19.15;;;7.03;;
73938;SDS011;62291;47.554;8.504;2023-08-24T06:17:15;16.48;;;7.28;;
73938;SDS011;62291;47.554;8.504;2023-08-24T06:19:41;18.80;;;7.40;;
73938;SDS011;62291;47.554;8.504;2023-08-24T06:22:07;13.80;;;7.20;;
73938;SDS011;62291;47.554;8.504;2023-08-24T06:24:32;18.52;;;7.10;;
73938;SDS011;62291;47.554;8.504;2023-08-24T06:26:58;19.45;;;7.13;;
73938;SDS011;62291;47.554;8.504;2023-08-24T06:29:24;16.50;;;7.28;;
73938;SDS011;62291;47.554;8.504;2023-08-24T06:31:50;19.88;;;7.75;;
73938;SDS011;62291;47.554;8.504;2023-08-24T06:34:15;19.95;;;7.28;;
73938;SDS011;62291;47.554;8.504;2023-08-24T06:36:41;13.02;;;7.20;;
73938;SDS011;62291;47.554;8.504;2023-08-24T06:39:07;15.00;;;6.63;;
73938;SDS011;62291;47.554;8.504;2023-08-24T06:41:33;10.63;;;6.00;;
73938;SDS011;62291;47.554;8.504;2023-08-24T06:44:00;12.25;;;5.90;;
73938;SDS011;62291;47.554;8.504;2023-08-24T06:46:26;14.88;;;5.80;;
73938;SDS011;62291;47.554;8.504;2023-08-24T06:48:52;12.25;;;5.97;;
73938;SDS011;62291;47.554;8.504;2023-08-24T06:51:18;12.90;;;5.97;;
73938;SDS011;62291;47.554;8.504;2023-08-24T06:53:44;7.00;;;5.30;;
73938;SDS011;62291;47.554;8.504;2023-08-24T06:56:11;6.13;;;5.05;;
73938;SDS011;62291;47.554;8.504;2023-08-24T06:58:39;13.27;;;5.82;;
73938;SDS011;62291;47.554;8.504;2023-08-24T07:01:04;11.50;;;5.30;;
73938;SDS011;62291;47.554;8.504;2023-08-24T07:03:31;12.57;;;5.60;;
73938;SDS011;62291;47.554;8.504;2023-08-24T07:05:58;7.40;;;5.20;;
73938;SDS011;62291;47.554;8.504;2023-08-24T07:08:24;7.13;;;4.78;;
73938;SDS011;62291;47.554;8.504;2023-08-24T07:10:50;9.18;;;5.30;;
73938;SDS011;62291;47.554;8.504;2023-08-24T07:13:15;12.45;;;5.85;;
73938;SDS011;62291;47.554;8.504;2023-08-24T07:15:41;9.45;;;5.50;;
73938;SDS011;62291;47.554;8.504;2023-08-24T07:18:07;7.40;;;5.30;;
73938;SDS011;62291;47.554;8.504;2023-08-24T07:20:34;9.23;;;5.40;;
73938;SDS011;62291;47.554;8.504;2023-08-24T07:23:00;12.50;;;5.88;;
73938;SDS011;62291;47.554;8.504;2023-08-24T07:25:26;8.55;;;5.40;;
73938;SDS011;62291;47.554;8.504;2023-08-24T07:27:55;14.13;;;5.88;;
73938;SDS011;62291;47.554;8.504;2023-08-24T07:30:25;8.98;;;5.85;;
73938;SDS011;62291;47.554;8.504;2023-08-24T07:32:52;8.30;;;5.47;;
73938;SDS011;62291;47.554;8.504;2023-08-24T07:35:18;6.80;;;5.05;;
73938;SDS011;62291;47.554;8.504;2023-08-24T07:37:46;10.55;;;5.60;;
73938;SDS011;62291;47.554;8.504;2023-08-24T07:40:13;12.52;;;6.07;;
73938;SDS011;62291;47.554;8.504;2023-08-24T07:42:42;6.55;;;5.57;;
73938;SDS011;62291;47.554;8.504;2023-08-24T07:45:12;11.00;;;5.80;;
73938;SDS011;62291;47.554;8.504;2023-08-24T07:47:39;7.47;;;5.30;;
73938;SDS011;62291;47.554;8.504;2023-08-24T07:50:06;6.60;;;5.93;;
73938;SDS011;62291;47.554;8.504;2023-08-24T07:52:33;10.18;;;5.55;;
73938;SDS011;62291;47.554;8.504;2023-08-24T07:54:59;7.13;;;5.47;;
73938;SDS011;62291;47.554;8.504;2023-08-24T07:57:25;8.90;;;5.43;;
73938;SDS011;62291;47.554;8.504;2023-08-24T07:59:52;9.07;;;5.60;;
73938;SDS011;62291;47.554;8.504;2023-08-24T08:02:17;7.60;;;5.25;;
73938;SDS011;62291;47.554;8.504;2023-08-24T08:04:43;9.63;;;5.50;;
73938;SDS011;62291;47.554;8.504;2023-08-24T08:07:09;10.82;;;5.55;;
73938;SDS011;62291;47.554;8.504;2023-08-24T08:09:36;11.80;;;5.68;;
73938;SDS011;62291;47.554;8.504;2023-08-24T08:12:02;12.63;;;5.35;;
73938;SDS011;62291;47.554;8.504;2023-08-24T08:14:28;7.88;;;5.10;;
73938;SDS011;62291;47.554;8.504;2023-08-24T08:16:54;8.75;;;5.82;;
73938;SDS011;62291;47.554;8.504;2023-08-24T08:19:21;9.57;;;5.35;;
73938;SDS011;62291;47.554;8.504;2023-08-24T08:21:47;8.43;;;5.70;;
73938;SDS011;62291;47.554;8.504;2023-08-24T08:24:12;9.80;;;5.22;;
73938;SDS011;62291;47.554;8.504;2023-08-24T08:26:38;11.30;;;6.05;;
73938;SDS011;62291;47.554;8.504;2023-08-24T08:29:04;9.90;;;6.15;;
73938;SDS011;62291;47.554;8.504;2023-08-24T08:31:30;14.35;;;6.57;;
73938;SDS011;62291;47.554;8.504;2023-08-24T08:33:56;11.65;;;5.80;;
73938;SDS011;62291;47.554;8.504;2023-08-24T08:36:22;10.13;;;5.88;;
73938;SDS011;62291;47.554;8.504;2023-08-24T08:38:47;8.35;;;6.00;;
73938;SDS011;62291;47.554;8.504;2023-08-24T08:41:14;11.25;;;6.18;;
73938;SDS011;62291;47.554;8.504;2023-08-24T08:43:41;8.82;;;6.20;;
73938;SDS011;62291;47.554;8.504;2023-08-24T08:46:07;10.02;;;6.13;;
73938;SDS011;62291;47.554;8.504;2023-08-24T08:48:33;13.45;;;5.93;;
73938;SDS011;62291;47.554;8.504;2023-08-24T08:51:00;11.48;;;5.85;;
73938;SDS011;62291;47.554;8.504;2023-08-24T08:53:27;9.00;;;6.22;;
73938;SDS011;62291;47.554;8.504;2023-08-24T08:55:54;16.15;;;5.90;;
73938;SDS011;62291;47.554;8.504;2023-08-24T08:58:22;10.00;;;6.00;;
73938;SDS011;62291;47.554;8.504;2023-08-24T09:00:50;9.40;;;5.78;;
73938;SDS011;62291;47.554;8.504;2023-08-24T09:03:17;14.38;;;6.63;;
73938;SDS011;62291;47.554;8.504;2023-08-24T09:05:44;12.43;;;5.53;;
73938;SDS011;62291;47.554;8.504;2023-08-24T09:08:13;13.93;;;6.03;;
73938;SDS011;62291;47.554;8.504;2023-08-24T09:10:41;14.07;;;6.05;;
73938;SDS011;62291;47.554;8.504;2023-08-24T09:13:07;10.65;;;5.72;;
73938;SDS011;62291;47.554;8.504;2023-08-24T09:15:36;10.25;;;6.13;;
73938;SDS011;62291;47.554;8.504;2023-08-24T09:18:02;11.68;;;6.22;;
73938;SDS011;62291;47.554;8.504;2023-08-24T09:20:28;11.40;;;5.78;;
73938;SDS011;62291;47.554;8.504;2023-08-24T09:22:54;10.55;;;6.30;;
73938;SDS011;62291;47.554;8.504;2023-08-24T09:25:22;9.68;;;6.18;;
73938;SDS011;62291;47.554;8.504;2023-08-24T09:30:45;13.05;;;5.93;;
73938;SDS011;62291;47.554;8.504;2023-08-24T09:33:10;9.15;;;6.35;;
73938;SDS011;62291;47.554;8.504;2023-08-24T09:35:36;9.52;;;5.90;;
73938;SDS011;62291;47.554;8.504;2023-08-24T09:38:18;10.32;;;6.00;;
73938;SDS011;62291;47.554;8.504;2023-08-24T09:40:45;11.00;;;6.35;;
73938;SDS011;62291;47.554;8.504;2023-08-24T09:43:14;16.30;;;6.22;;
73938;SDS011;62291;47.554;8.504;2023-08-24T09:45:50;15.60;;;6.13;;
73938;SDS011;62291;47.554;8.504;2023-08-24T09:48:17;16.90;;;6.20;;
73938;SDS011;62291;47.554;8.504;2023-08-24T09:50:46;12.60;;;5.82;;
73938;SDS011;62291;47.554;8.504;2023-08-24T09:55:49;8.68;;;5.85;;
73938;SDS011;62291;47.554;8.504;2023-08-24T09:58:25;9.55;;;6.35;;
73938;SDS011;62291;47.554;8.504;2023-08-24T10:00:51;18.40;;;7.00;;
73938;SDS011;62291;47.554;8.504;2023-08-24T10:03:19;12.35;;;6.22;;
73938;SDS011;62291;47.554;8.504;2023-08-24T10:05:52;14.85;;;6.57;;
73938;SDS011;62291;47.554;8.504;2023-08-24T10:08:20;13.38;;;5.95;;
73938;SDS011;62291;47.554;8.504;2023-08-24T10:10:51;13.48;;;5.93;;
73938;SDS011;62291;47.554;8.504;2023-08-24T10:15:52;10.18;;;5.93;;
73938;SDS011;62291;47.554;8.504;2023-08-24T10:18:19;13.77;;;6.25;;
73938;SDS011;62291;47.554;8.504;2023-08-24T10:20:45;12.43;;;6.13;;
73938;SDS011;62291;47.554;8.504;2023-08-24T10:23:12;11.85;;;5.40;;
73938;SDS011;62291;47.554;8.504;2023-08-24T10:25:40;14.70;;;6.40;;
73938;SDS011;62291;47.554;8.504;2023-08-24T10:28:07;10.65;;;5.85;;
73938;SDS011;62291;47.554;8.504;2023-08-24T10:30:34;13.75;;;6.55;;
73938;SDS011;62291;47.554;8.504;2023-08-24T10:33:01;12.85;;;6.63;;
73938;SDS011;62291;47.554;8.504;2023-08-24T10:35:27;11.10;;;6.30;;
73938;SDS011;62291;47.554;8.504;2023-08-24T10:37:53;15.98;;;6.20;;
73938;SDS011;62291;47.554;8.504;2023-08-24T10:40:31;13.85;;;6.55;;
73938;SDS011;62291;47.554;8.504;2023-08-24T10:42:57;13.80;;;6.30;;
73938;SDS011;62291;47.554;8.504;2023-08-24T10:45:27;13.45;;;6.25;;
73938;SDS011;62291;47.554;8.504;2023-08-24T10:48:22;16.05;;;6.57;;
73938;SDS011;62291;47.554;8.504;2023-08-24T10:54:07;12.15;;;6.28;;
73938;SDS011;62291;47.554;8.504;2023-08-24T10:56:38;10.52;;;6.10;;
73938;SDS011;62291;47.554;8.504;2023-08-24T11:01:41;20.75;;;6.60;;
73938;SDS011;62291;47.554;8.504;2023-08-24T11:04:29;16.73;;;6.60;;
73938;SDS011;62291;47.554;8.504;2023-08-24T11:06:58;15.52;;;6.05;;
73938;SDS011;62291;47.554;8.504;2023-08-24T11:09:27;9.63;;;5.80;;
73938;SDS011;62291;47.554;8.504;2023-08-24T11:12:11;15.05;;;6.07;;
73938;SDS011;62291;47.554;8.504;2023-08-24T11:14:48;15.70;;;6.38;;
73938;SDS011;62291;47.554;8.504;2023-08-24T11:17:20;13.15;;;6.15;;
73938;SDS011;62291;47.554;8.504;2023-08-24T11:19:50;14.68;;;6.40;;
73938;SDS011;62291;47.554;8.504;2023-08-24T11:22:17;11.27;;;6.30;;
73938;SDS011;62291;47.554;8.504;2023-08-24T11:24:43;9.95;;;5.93;;
73938;SDS011;62291;47.554;8.504;2023-08-24T11:27:10;13.23;;;6.00;;
73938;SDS011;62291;47.554;8.504;2023-08-24T11:29:35;13.00;;;5.97;;
73938;SDS011;62291;47.554;8.504;2023-08-24T11:32:01;14.65;;;6.32;;
73938;SDS011;62291;47.554;8.504;2023-08-24T11:34:28;10.80;;;6.45;;
73938;SDS011;62291;47.554;8.504;2023-08-24T11:36:54;20.10;;;6.30;;
73938;SDS011;62291;47.554;8.504;2023-08-24T11:39:21;11.35;;;5.78;;
73938;SDS011;62291;47.554;8.504;2023-08-24T11:42:04;13.80;;;5.68;;
73938;SDS011;62291;47.554;8.504;2023-08-24T11:44:49;17.13;;;6.03;;
73938;SDS011;62291;47.554;8.504;2023-08-24T11:47:15;14.85;;;6.10;;
73938;SDS011;62291;47.554;8.504;2023-08-24T11:49:41;12.57;;;5.97;;
73938;SDS011;62291;47.554;8.504;2023-08-24T11:52:08;15.20;;;5.82;;
73938;SDS011;62291;47.554;8.504;2023-08-24T11:54:34;16.77;;;5.70;;
73938;SDS011;62291;47.554;8.504;2023-08-24T11:57:05;17.98;;;6.25;;
73938;SDS011;62291;47.554;8.504;2023-08-24T11:59:31;18.15;;;6.15;;
73938;SDS011;62291;47.554;8.504;2023-08-24T12:01:57;21.38;;;6.18;;
73938;SDS011;62291;47.554;8.504;2023-08-24T12:04:24;15.48;;;5.68;;
73938;SDS011;62291;47.554;8.504;2023-08-24T12:06:49;15.07;;;5.53;;
73938;SDS011;62291;47.554;8.504;2023-08-24T12:09:15;13.23;;;5.60;;
73938;SDS011;62291;47.554;8.504;2023-08-24T12:11:41;13.77;;;5.20;;
73938;SDS011;62291;47.554;8.504;2023-08-24T12:14:07;13.25;;;5.35;;
73938;SDS011;62291;47.554;8.504;2023-08-24T12:16:34;12.38;;;5.32;;
73938;SDS011;62291;47.554;8.504;2023-08-24T12:19:00;12.85;;;5.85;;
73938;SDS011;62291;47.554;8.504;2023-08-24T12:21:30;19.92;;;5.45;;
73938;SDS011;62291;47.554;8.504;2023-08-24T12:24:00;13.00;;;5.03;;
73938;SDS011;62291;47.554;8.504;2023-08-24T12:26:31;17.67;;;4.65;;
73938;SDS011;62291;47.554;8.504;2023-08-24T12:29:01;19.13;;;4.95;;
73938;SDS011;62291;47.554;8.504;2023-08-24T12:31:30;17.17;;;4.90;;
73938;SDS011;62291;47.554;8.504;2023-08-24T12:34:04;16.23;;;4.53;;
73938;SDS011;62291;47.554;8.504;2023-08-24T12:36:33;18.80;;;4.28;;
73938;SDS011;62291;47.554;8.504;2023-08-24T12:41:29;16.65;;;5.10;;
73938;SDS011;62291;47.554;8.504;2023-08-24T12:43:55;15.43;;;4.45;;
73938;SDS011;62291;47.554;8.504;2023-08-24T12:46:20;13.00;;;4.40;;
73938;SDS011;62291;47.554;8.504;2023-08-24T12:48:46;12.35;;;4.80;;
73938;SDS011;62291;47.554;8.504;2023-08-24T12:51:12;14.05;;;4.50;;
73938;SDS011;62291;47.554;8.504;2023-08-24T12:53:38;18.83;;;4.38;;
73938;SDS011;62291;47.554;8.504;2023-08-24T12:56:04;16.40;;;4.65;;
73938;SDS011;62291;47.554;8.504;2023-08-24T12:58:29;15.27;;;4.53;;
73938;SDS011;62291;47.554;8.504;2023-08-24T13:00:56;15.65;;;4.00;;
73938;SDS011;62291;47.554;8.504;2023-08-24T13:03:21;12.52;;;4.28;;
73938;SDS011;62291;47.554;8.504;2023-08-24T13:05:47;15.70;;;4.00;;
73938;SDS011;62291;47.554;8.504;2023-08-24T13:08:13;11.05;;;3.75;;
73938;SDS011;62291;47.554;8.504;2023-08-24T13:10:39;21.27;;;4.28;;
73938;SDS011;62291;47.554;8.504;2023-08-24T13:13:05;15.70;;;4.30;;
73938;SDS011;62291;47.554;8.504;2023-08-24T13:15:30;14.23;;;3.95;;
73938;SDS011;62291;47.554;8.504;2023-08-24T13:17:56;12.23;;;3.90;;
73938;SDS011;62291;47.554;8.504;2023-08-24T13:20:22;17.10;;;4.15;;
73938;SDS011;62291;47.554;8.504;2023-08-24T13:22:49;17.48;;;4.10;;
73938;SDS011;62291;47.554;8.504;2023-08-24T13:25:14;11.40;;;3.75;;
73938;SDS011;62291;47.554;8.504;2023-08-24T13:27:40;13.57;;;3.85;;
73938;SDS011;62291;47.554;8.504;2023-08-24T13:30:06;11.13;;;3.88;;
73938;SDS011;62291;47.554;8.504;2023-08-24T13:32:32;14.68;;;4.03;;
73938;SDS011;62291;47.554;8.504;2023-08-24T13:35:00;14.25;;;4.03;;
73938;SDS011;62291;47.554;8.504;2023-08-24T13:37:26;13.25;;;4.55;;
73938;SDS011;62291;47.554;8.504;2023-08-24T13:39:51;19.60;;;4.88;;
73938;SDS011;62291;47.554;8.504;2023-08-24T13:42:17;13.15;;;3.80;;
73938;SDS011;62291;47.554;8.504;2023-08-24T13:44:44;17.23;;;4.53;;
73938;SDS011;62291;47.554;8.504;2023-08-24T13:47:10;13.88;;;4.47;;
73938;SDS011;62291;47.554;8.504;2023-08-24T13:49:36;15.60;;;4.63;;
73938;SDS011;62291;47.554;8.504;2023-08-24T13:52:02;13.50;;;4.63;;
73938;SDS011;62291;47.554;8.504;2023-08-24T13:54:28;14.05;;;4.00;;
73938;SDS011;62291;47.554;8.504;2023-08-24T13:56:55;13.38;;;4.68;;
73938;SDS011;62291;47.554;8.504;2023-08-24T13:59:21;14.88;;;4.68;;
73938;SDS011;62291;47.554;8.504;2023-08-24T14:01:47;18.35;;;4.78;;
73938;SDS011;62291;47.554;8.504;2023-08-24T14:04:13;15.85;;;4.80;;
73938;SDS011;62291;47.554;8.504;2023-08-24T14:06:39;21.02;;;5.68;;
73938;SDS011;62291;47.554;8.504;2023-08-24T14:09:04;13.18;;;4.00;;
73938;SDS011;62291;47.554;8.504;2023-08-24T14:11:31;15.48;;;4.75;;
73938;SDS011;62291;47.554;8.504;2023-08-24T14:13:57;15.25;;;4.05;;
73938;SDS011;62291;47.554;8.504;2023-08-24T14:16:24;18.05;;;5.13;;
73938;SDS011;62291;47.554;8.504;2023-08-24T14:18:50;16.77;;;4.63;;
73938;SDS011;62291;47.554;8.504;2023-08-24T14:21:17;14.77;;;4.63;;
73938;SDS011;62291;47.554;8.504;2023-08-24T14:23:42;19.73;;;5.28;;
73938;SDS011;62291;47.554;8.504;2023-08-24T14:26:08;19.10;;;4.78;;
73938;SDS011;62291;47.554;8.504;2023-08-24T14:28:54;15.13;;;5.20;;
73938;SDS011;62291;47.554;8.504;2023-08-24T14:31:22;13.73;;;4.70;;
73938;SDS011;62291;47.554;8.504;2023-08-24T14:33:49;18.35;;;5.18;;
73938;SDS011;62291;47.554;8.504;2023-08-24T14:36:16;21.77;;;5.10;;
73938;SDS011;62291;47.554;8.504;2023-08-24T14:38:42;16.35;;;4.45;;
73938;SDS011;62291;47.554;8.504;2023-08-24T14:41:09;19.67;;;5.05;;
73938;SDS011;62291;47.554;8.504;2023-08-24T14:43:35;14.82;;;4.43;;
73938;SDS011;62291;47.554;8.504;2023-08-24T14:46:01;20.70;;;4.95;;
73938;SDS011;62291;47.554;8.504;2023-08-24T14:48:27;25.42;;;4.88;;
73938;SDS011;62291;47.554;8.504;2023-08-24T14:50:53;17.90;;;5.32;;
73938;SDS011;62291;47.554;8.504;2023-08-24T14:53:19;16.17;;;4.57;;
73938;SDS011;62291;47.554;8.504;2023-08-24T14:55:45;18.27;;;4.60;;
73938;SDS011;62291;47.554;8.504;2023-08-24T14:58:11;15.23;;;4.35;;